createdAt,value
2018-10-21T00:00:11.799Z,10.35
2018-10-21T00:02:40.301Z,10.35
2018-10-21T00:05:09.981Z,10.36
2018-10-21T00:07:38.983Z,10.40
2018-10-21T00:10:08.820Z,10.42
2018-10-21T00:12:38.054Z,10.46
2018-10-21T00:15:07.712Z,10.43
2018-10-21T00:17:36.307Z,10.46
2018-10-21T00:20:04.991Z,10.44
2018-10-21T00:22:33.686Z,10.46
2018-10-21T00:25:02.443Z,10.48
2018-10-21T00:27:31.143Z,10.49
2018-10-21T00:29:59.835Z,10.49
2018-10-21T00:32:59.680Z,10.44
2018-10-21T00:35:28.319Z,10.48
2018-10-21T00:37:57.039Z,10.50
2018-10-21T00:40:25.615Z,10.49
2018-10-21T00:42:54.447Z,10.50
2018-10-21T00:45:23.003Z,10.48
2018-10-21T00:47:52.310Z,10.46
2018-10-21T00:50:20.977Z,10.46
2018-10-21T00:52:50.150Z,10.46
2018-10-21T00:55:19.049Z,10.47
2018-10-21T00:57:47.638Z,10.49
2018-10-21T01:00:16.532Z,10.46
2018-10-21T01:02:45.225Z,10.44
2018-10-21T01:05:14.002Z,10.46
2018-10-21T01:07:42.763Z,10.47
2018-10-21T01:10:12.392Z,10.47
2018-10-21T01:12:41.772Z,10.50
2018-10-21T01:15:11.901Z,10.48
2018-10-21T01:17:40.436Z,10.47
2018-10-21T01:20:11.343Z,10.47
2018-10-21T01:22:41.296Z,10.48
2018-10-21T01:25:10.533Z,10.47
2018-10-21T01:27:40.056Z,10.45
2018-10-21T01:30:09.805Z,10.47
2018-10-21T01:32:38.450Z,10.39
2018-10-21T01:35:07.968Z,10.41
2018-10-21T01:37:36.898Z,10.40
2018-10-21T01:40:41.149Z,10.39
2018-10-21T01:43:11.181Z,10.30
2018-10-21T01:45:39.853Z,10.31
2018-10-21T01:48:11.243Z,10.29
2018-10-21T01:50:40.041Z,10.26
2018-10-21T01:53:10.049Z,10.20
2018-10-21T01:55:38.938Z,10.18
2018-10-21T01:58:08.017Z,10.14
2018-10-21T02:00:37.304Z,10.07
2018-10-21T02:03:06.682Z,10.02
2018-10-21T02:05:35.852Z,9.96
2018-10-21T02:08:04.726Z,9.95
2018-10-21T02:10:33.798Z,9.93
2018-10-21T02:13:02.520Z,9.93
2018-10-21T02:15:31.150Z,9.93
2018-10-21T02:17:59.840Z,9.94
2018-10-21T02:20:28.700Z,9.92
2018-10-21T02:22:58.008Z,9.89
2018-10-21T02:25:26.870Z,9.87
2018-10-21T02:27:56.544Z,9.83
2018-10-21T02:30:26.352Z,9.78
2018-10-21T02:32:56.307Z,9.78
2018-10-21T02:35:25.094Z,9.75
2018-10-21T02:37:54.687Z,9.70
2018-10-21T02:41:37.457Z,9.66
2018-10-21T02:44:07.614Z,9.55
2018-10-21T02:46:36.780Z,9.58
2018-10-21T02:49:06.769Z,9.57
2018-10-21T02:51:35.514Z,9.52
2018-10-21T02:54:04.110Z,9.48
2018-10-21T02:56:32.891Z,9.48
2018-10-21T02:59:01.997Z,9.38
2018-10-21T03:01:30.889Z,9.36
2018-10-21T03:04:00.591Z,9.33
2018-10-21T03:06:29.593Z,9.30
2018-10-21T03:08:58.456Z,9.30
2018-10-21T03:11:27.289Z,9.30
2018-10-21T03:13:55.966Z,9.28
2018-10-21T03:16:25.141Z,9.33
2018-10-21T03:18:55.172Z,9.33
2018-10-21T03:21:24.110Z,9.35
2018-10-21T03:23:52.860Z,9.27
2018-10-21T03:26:21.983Z,9.28
2018-10-21T03:28:50.854Z,9.37
2018-10-21T03:31:19.777Z,9.40
2018-10-21T03:33:49.204Z,9.45
2018-10-21T03:36:18.030Z,9.48
2018-10-21T03:38:46.708Z,9.52
2018-10-21T03:41:16.176Z,9.52
2018-10-21T03:43:45.468Z,9.55
2018-10-21T03:46:15.554Z,9.57
2018-10-21T03:48:44.951Z,9.57
2018-10-21T03:51:14.338Z,9.60
2018-10-21T03:53:43.271Z,9.60
2018-10-21T03:56:12.262Z,9.61
2018-10-21T03:58:41.673Z,9.61
2018-10-21T04:01:11.043Z,9.61
2018-10-21T04:03:39.871Z,9.62
2018-10-21T04:06:09.344Z,9.65
2018-10-21T04:08:38.055Z,9.66
2018-10-21T04:11:06.753Z,9.67
2018-10-21T04:13:35.509Z,9.69
2018-10-21T04:16:04.336Z,9.70
2018-10-21T04:18:33.827Z,9.71
2018-10-21T04:21:02.904Z,9.69
2018-10-21T04:23:32.318Z,9.64
2018-10-21T04:26:00.929Z,9.66
2018-10-21T04:28:29.684Z,9.65
2018-10-21T04:30:58.897Z,9.71
2018-10-21T04:33:58.711Z,9.72
2018-10-21T04:36:30.730Z,9.77
2018-10-21T04:40:10.910Z,9.79
2018-10-21T04:42:39.514Z,9.80
2018-10-21T04:45:11.261Z,9.85
2018-10-21T04:47:40.052Z,9.88
2018-10-21T04:50:09.696Z,9.91
2018-10-21T04:52:38.517Z,9.92
2018-10-21T04:55:10.357Z,9.93
2018-10-21T04:57:41.019Z,9.96
2018-10-21T05:00:13.208Z,9.98
2018-10-21T05:02:42.193Z,9.99
2018-10-21T05:05:12.360Z,10.02
2018-10-21T05:07:41.288Z,10.03
2018-10-21T05:10:16.998Z,10.03
2018-10-21T05:12:45.630Z,10.01
2018-10-21T05:15:14.362Z,10.03
2018-10-21T05:17:44.159Z,10.06
2018-10-21T05:20:13.284Z,10.09
2018-10-21T05:22:42.544Z,10.11
2018-10-21T05:25:11.694Z,10.11
2018-10-21T05:27:40.538Z,10.12
2018-10-21T05:30:10.482Z,10.13
2018-10-21T05:32:39.380Z,10.13
2018-10-21T05:35:09.365Z,10.09
2018-10-21T05:37:38.796Z,10.12
2018-10-21T05:40:09.431Z,10.03
2018-10-21T05:42:38.747Z,10.08
2018-10-21T05:45:08.083Z,10.09
2018-10-21T05:47:38.045Z,10.11
2018-10-21T05:50:07.778Z,10.15
2018-10-21T05:52:37.144Z,10.14
2018-10-21T05:55:07.254Z,10.15
2018-10-21T05:57:36.083Z,10.10
2018-10-21T06:00:05.779Z,10.09
2018-10-21T06:02:34.471Z,10.13
2018-10-21T06:05:03.780Z,10.14
2018-10-21T06:07:32.738Z,10.18
2018-10-21T06:10:06.572Z,10.22
2018-10-21T06:12:35.348Z,10.18
2018-10-21T06:15:04.519Z,10.19
2018-10-21T06:17:33.514Z,10.22
2018-10-21T06:20:23.815Z,10.23
2018-10-21T06:22:54.252Z,10.26
2018-10-21T06:25:23.046Z,10.24
2018-10-21T06:27:51.793Z,10.24
2018-10-21T06:30:24.754Z,10.28
2018-10-21T06:32:54.226Z,10.31
2018-10-21T06:35:22.918Z,10.32
2018-10-21T06:37:51.613Z,10.35
2018-10-21T06:40:21.203Z,10.37
2018-10-21T06:42:51.002Z,10.41
2018-10-21T06:45:20.695Z,10.41
2018-10-21T06:47:51.373Z,10.43
2018-10-21T06:50:21.881Z,10.44
2018-10-21T06:52:52.000Z,10.46
2018-10-21T06:55:21.437Z,10.51
2018-10-21T06:57:50.860Z,10.58
2018-10-21T07:00:20.938Z,10.62
2018-10-21T07:02:51.276Z,10.68
2018-10-21T07:05:31.615Z,10.72
2018-10-21T07:08:01.772Z,10.73
2018-10-21T07:10:31.662Z,10.82
2018-10-21T07:13:01.307Z,10.85
2018-10-21T07:15:31.330Z,10.90
2018-10-21T07:18:02.465Z,10.96
2018-10-21T07:20:32.537Z,10.99
2018-10-21T07:23:03.483Z,10.98
2018-10-21T07:25:34.090Z,11.03
2018-10-21T07:28:05.408Z,11.08
2018-10-21T07:30:35.469Z,11.11
2018-10-21T07:33:05.840Z,11.10
2018-10-21T07:35:36.721Z,11.11
2018-10-21T07:38:06.675Z,11.20
2018-10-21T07:40:36.347Z,11.26
2018-10-21T07:43:06.682Z,11.29
2018-10-21T07:45:36.779Z,11.32
2018-10-21T07:48:07.442Z,11.35
2018-10-21T07:50:38.060Z,11.39
2018-10-21T07:53:09.534Z,11.44
2018-10-21T07:55:40.093Z,11.43
2018-10-21T07:58:09.577Z,11.49
2018-10-21T08:00:39.350Z,11.57
2018-10-21T08:03:09.789Z,11.65
2018-10-21T08:05:49.579Z,11.73
2018-10-21T08:08:22.669Z,11.76
2018-10-21T08:10:51.765Z,11.78
2018-10-21T08:13:21.696Z,11.83
2018-10-21T08:15:50.688Z,11.87
2018-10-21T08:18:19.627Z,11.87
2018-10-21T08:20:49.541Z,11.93
2018-10-21T08:23:19.501Z,11.96
2018-10-21T08:25:49.679Z,12.08
2018-10-21T08:28:19.172Z,12.07
2018-10-21T08:30:47.981Z,12.12
2018-10-21T08:33:16.584Z,12.12
2018-10-21T08:35:45.198Z,12.19
2018-10-21T08:38:14.073Z,12.22
2018-10-21T08:40:43.031Z,12.29
2018-10-21T08:43:11.942Z,12.28
2018-10-21T08:45:41.628Z,12.35
2018-10-21T08:48:11.075Z,12.41
2018-10-21T08:50:40.270Z,12.49
2018-10-21T08:53:09.850Z,12.60
2018-10-21T08:55:38.557Z,12.67
2018-10-21T08:58:08.614Z,12.75
2018-10-21T09:00:37.890Z,12.75
2018-10-21T09:03:07.473Z,12.79
2018-10-21T09:05:37.400Z,12.87
2018-10-21T09:08:06.525Z,12.95
2018-10-21T09:10:35.642Z,13.08
2018-10-21T09:13:04.748Z,13.10
2018-10-21T09:15:34.359Z,13.16
2018-10-21T09:18:03.305Z,12.93
2018-10-21T09:20:32.357Z,13.10
2018-10-21T09:23:01.105Z,13.31
2018-10-21T09:25:31.081Z,13.37
2018-10-21T09:28:00.317Z,13.38
2018-10-21T09:30:29.387Z,13.55
2018-10-21T09:32:58.088Z,13.64
2018-10-21T09:35:27.364Z,13.69
2018-10-21T09:37:56.697Z,13.69
2018-10-21T09:40:25.773Z,13.73
2018-10-21T09:42:55.259Z,13.78
2018-10-21T09:45:24.995Z,13.74
2018-10-21T09:47:53.756Z,13.67
2018-10-21T09:50:23.745Z,13.63
2018-10-21T09:52:53.007Z,13.83
2018-10-21T09:55:23.097Z,13.85
2018-10-21T09:57:52.534Z,13.96
2018-10-21T10:00:27.205Z,14.04
2018-10-21T10:03:03.598Z,13.89
2018-10-21T10:05:32.887Z,14.09
2018-10-21T10:08:03.232Z,13.95
2018-10-21T10:10:32.614Z,14.12
2018-10-21T10:13:02.184Z,14.20
2018-10-21T10:15:32.539Z,14.34
2018-10-21T10:18:02.806Z,14.31
2018-10-21T10:20:33.408Z,14.30
2018-10-21T10:23:02.547Z,14.33
2018-10-21T10:25:31.939Z,14.54
2018-10-21T10:28:01.307Z,14.54
2018-10-21T10:30:31.937Z,14.59
2018-10-21T10:33:02.250Z,14.53
2018-10-21T10:35:31.138Z,14.66
2018-10-21T10:38:00.099Z,14.66
2018-10-21T10:40:29.449Z,14.65
2018-10-21T10:42:58.941Z,14.78
2018-10-21T10:45:27.854Z,14.80
2018-10-21T10:47:57.949Z,14.67
2018-10-21T10:50:27.274Z,14.67
2018-10-21T10:52:56.474Z,14.75
2018-10-21T10:55:30.080Z,14.68
2018-10-21T10:57:59.741Z,14.81
2018-10-21T11:00:28.543Z,14.92
2018-10-21T11:02:57.859Z,14.83
2018-10-21T11:05:26.902Z,14.91
2018-10-21T11:07:56.302Z,14.95
2018-10-21T11:10:25.856Z,14.97
2018-10-21T11:12:55.191Z,15.05
2018-10-21T11:15:24.489Z,15.11
2018-10-21T11:17:53.689Z,15.14
2018-10-21T11:20:23.602Z,15.23
2018-10-21T11:22:52.939Z,15.10
2018-10-21T11:25:21.692Z,15.10
2018-10-21T11:27:50.997Z,15.23
2018-10-21T11:30:20.702Z,15.13
2018-10-21T11:32:49.899Z,15.27
2018-10-21T11:35:19.311Z,15.31
2018-10-21T11:37:48.318Z,15.37
2018-10-21T11:40:17.258Z,15.29
2018-10-21T11:42:46.327Z,15.26
2018-10-21T11:45:15.212Z,15.30
2018-10-21T11:47:45.473Z,15.45
2018-10-21T11:50:16.927Z,15.56
2018-10-21T11:52:46.083Z,15.34
2018-10-21T11:55:15.243Z,15.25
2018-10-21T11:57:44.330Z,15.18
2018-10-21T12:00:14.369Z,15.17
2018-10-21T12:02:43.859Z,15.30
2018-10-21T12:05:14.156Z,15.34
2018-10-21T12:07:43.923Z,15.54
2018-10-21T12:10:12.891Z,15.44
2018-10-21T12:12:42.121Z,15.47
2018-10-21T12:15:11.131Z,15.66
2018-10-21T12:17:40.186Z,15.29
2018-10-21T12:20:09.294Z,15.51
2018-10-21T12:22:39.020Z,15.66
2018-10-21T12:25:08.071Z,15.88
2018-10-21T12:27:37.770Z,15.90
2018-10-21T12:30:08.002Z,15.99
2018-10-21T12:32:37.003Z,16.08
2018-10-21T12:35:07.811Z,16.18
2018-10-21T12:37:37.872Z,16.19
2018-10-21T12:40:08.614Z,16.11
2018-10-21T12:42:38.036Z,15.93
2018-10-21T12:45:08.866Z,15.74
2018-10-21T12:47:38.585Z,15.68
2018-10-21T12:50:08.139Z,15.79
2018-10-21T12:52:37.400Z,15.78
2018-10-21T12:55:07.341Z,15.53
2018-10-21T12:57:36.714Z,15.50
2018-10-21T13:00:05.981Z,15.34
2018-10-21T13:02:35.423Z,15.42
2018-10-21T13:05:04.367Z,15.25
2018-10-21T13:07:33.582Z,15.15
2018-10-21T13:10:02.596Z,15.13
2018-10-21T13:12:32.502Z,15.21
2018-10-21T13:15:01.790Z,15.24
2018-10-21T13:17:30.873Z,15.18
2018-10-21T13:20:00.053Z,15.25
2018-10-21T13:22:28.857Z,15.25
2018-10-21T13:24:59.758Z,15.28
2018-10-21T13:27:29.031Z,15.30
2018-10-21T13:29:58.070Z,15.42
2018-10-21T13:32:27.174Z,15.33
2018-10-21T13:34:57.610Z,15.32
2018-10-21T13:37:27.351Z,15.36
2018-10-21T13:39:56.109Z,15.35
2018-10-21T13:42:25.318Z,15.38
2018-10-21T13:44:54.556Z,15.32
2018-10-21T13:47:23.720Z,15.26
2018-10-21T13:49:53.026Z,15.22
2018-10-21T13:52:22.335Z,15.20
2018-10-21T13:54:51.414Z,15.21
2018-10-21T13:57:20.517Z,15.14
2018-10-21T13:59:49.484Z,15.16
2018-10-21T14:02:19.405Z,15.13
2018-10-21T14:04:48.830Z,15.13
2018-10-21T14:07:18.668Z,15.03
2018-10-21T14:09:49.506Z,15.02
2018-10-21T14:12:18.878Z,15.02
2018-10-21T14:14:48.906Z,15.09
2018-10-21T14:17:18.705Z,15.13
2018-10-21T14:19:49.615Z,15.18
2018-10-21T14:22:19.817Z,15.20
2018-10-21T14:24:49.012Z,15.07
2018-10-21T14:27:18.777Z,15.07
2018-10-21T14:29:49.384Z,15.10
2018-10-21T14:32:19.442Z,15.11
2018-10-21T14:34:50.053Z,15.09
2018-10-21T14:37:22.002Z,15.08
2018-10-21T14:39:52.125Z,15.07
2018-10-21T14:42:23.774Z,15.05
2018-10-21T14:44:53.591Z,15.06
2018-10-21T14:47:22.558Z,15.07
2018-10-21T14:49:52.616Z,15.02
2018-10-21T14:52:23.163Z,15.02
2018-10-21T14:54:53.267Z,15.04
2018-10-21T14:57:23.788Z,14.97
2018-10-21T14:59:53.565Z,14.97
2018-10-21T15:02:23.318Z,14.91
2018-10-21T15:04:53.807Z,14.85
2018-10-21T15:07:23.543Z,14.81
2018-10-21T15:09:53.823Z,14.79
2018-10-21T15:12:23.451Z,14.73
2018-10-21T15:14:52.954Z,14.73
2018-10-21T15:17:22.370Z,14.68
2018-10-21T15:19:52.954Z,14.64
2018-10-21T15:22:22.400Z,14.63
2018-10-21T15:24:51.613Z,14.59
2018-10-21T15:27:20.774Z,14.48
2018-10-21T15:29:49.624Z,14.44
2018-10-21T15:32:18.575Z,14.35
2018-10-21T15:34:48.070Z,14.37
2018-10-21T15:37:17.355Z,14.39
2018-10-21T15:39:51.341Z,14.31
2018-10-21T15:42:20.551Z,14.37
2018-10-21T15:45:01.754Z,14.27
2018-10-21T15:47:31.158Z,14.20
2018-10-21T15:50:00.200Z,14.19
2018-10-21T15:52:29.733Z,14.13
2018-10-21T15:54:59.180Z,14.04
2018-10-21T15:57:29.176Z,14.02
2018-10-21T15:59:57.969Z,13.98
2018-10-21T16:02:27.496Z,13.90
2018-10-21T16:04:56.602Z,13.87
2018-10-21T16:07:25.491Z,13.82
2018-10-21T16:09:54.494Z,13.79
2018-10-21T16:12:23.243Z,13.72
2018-10-21T16:14:52.859Z,13.65
2018-10-21T16:17:21.935Z,13.63
2018-10-21T16:19:51.069Z,13.55
2018-10-21T16:22:20.029Z,13.48
2018-10-21T16:24:49.439Z,13.44
2018-10-21T16:27:18.386Z,13.38
2018-10-21T16:29:47.400Z,13.33
2018-10-21T16:32:16.664Z,13.19
2018-10-21T16:34:46.968Z,13.14
2018-10-21T16:37:15.985Z,13.12
2018-10-21T16:39:45.082Z,13.06
2018-10-21T16:42:14.432Z,13.02
2018-10-21T16:44:43.629Z,12.93
2018-10-21T16:47:12.717Z,12.86
2018-10-21T16:49:41.798Z,12.70
2018-10-21T16:52:11.019Z,12.57
2018-10-21T16:54:40.030Z,12.60
2018-10-21T16:57:08.993Z,12.62
2018-10-21T16:59:37.833Z,12.58
2018-10-21T17:02:06.619Z,12.30
2018-10-21T17:04:35.563Z,12.32
2018-10-21T17:07:04.370Z,12.21
2018-10-21T17:09:33.413Z,12.19
2018-10-21T17:12:02.381Z,12.18
2018-10-21T17:14:31.753Z,12.19
2018-10-21T17:17:01.806Z,12.14
2018-10-21T17:19:31.171Z,12.07
2018-10-21T17:22:00.384Z,12.05
2018-10-21T17:24:29.693Z,12.02
2018-10-21T17:26:59.098Z,11.97
2018-10-21T17:29:28.248Z,11.89
2018-10-21T17:31:57.264Z,11.84
2018-10-21T17:34:26.231Z,11.70
2018-10-21T17:36:55.760Z,11.74
2018-10-21T17:39:25.390Z,11.73
2018-10-21T17:41:55.367Z,11.64
2018-10-21T17:44:24.458Z,11.68
2018-10-21T17:46:53.729Z,11.59
2018-10-21T17:49:22.951Z,11.43
2018-10-21T17:52:23.573Z,11.50
2018-10-21T17:54:52.377Z,11.46
2018-10-21T17:57:21.463Z,11.46
2018-10-21T17:59:51.895Z,11.46
2018-10-21T18:02:20.905Z,11.41
2018-10-21T18:04:51.313Z,11.27
2018-10-21T18:07:21.030Z,11.25
2018-10-21T18:09:51.435Z,11.20
2018-10-21T18:12:21.467Z,11.15
2018-10-21T18:14:50.765Z,11.13
2018-10-21T18:17:20.715Z,11.12
2018-10-21T18:19:51.025Z,11.08
2018-10-21T18:22:20.388Z,10.98
2018-10-21T18:24:49.697Z,10.96
2018-10-21T18:27:19.557Z,10.94
2018-10-21T18:29:48.593Z,10.89
2018-10-21T18:32:18.239Z,10.88
2018-10-21T18:34:49.862Z,10.84
2018-10-21T18:37:19.284Z,10.78
2018-10-21T18:39:49.007Z,10.74
2018-10-21T18:42:22.794Z,10.70
2018-10-21T18:44:52.788Z,10.69
2018-10-21T18:47:21.939Z,10.64
2018-10-21T18:49:52.427Z,10.59
2018-10-21T18:52:21.620Z,10.55
2018-10-21T18:54:51.659Z,10.49
2018-10-21T18:57:21.562Z,10.39
2018-10-21T18:59:50.884Z,10.36
2018-10-21T19:02:20.451Z,10.22
2018-10-21T19:04:49.864Z,10.18
2018-10-21T19:07:19.674Z,10.14
2018-10-21T19:09:49.493Z,10.15
2018-10-21T19:12:19.016Z,10.11
2018-10-21T19:14:48.420Z,10.15
2018-10-21T19:17:17.500Z,10.08
2018-10-21T19:19:46.499Z,10.11
2018-10-21T19:22:15.791Z,10.10
2018-10-21T19:24:44.483Z,10.11
2018-10-21T19:27:14.086Z,10.01
2018-10-21T19:29:43.077Z,10.07
2018-10-21T19:32:12.203Z,10.01
2018-10-21T19:34:41.674Z,10.01
2018-10-21T19:37:11.316Z,10.00
2018-10-21T19:39:40.299Z,9.99
2018-10-21T19:42:08.984Z,9.95
2018-10-21T19:44:39.783Z,9.96
2018-10-21T19:47:08.895Z,9.95
2018-10-21T19:49:38.458Z,9.92
2018-10-21T19:52:07.752Z,9.88
2018-10-21T19:54:37.315Z,9.85
2018-10-21T19:57:05.901Z,9.78
2018-10-21T19:59:34.396Z,9.75
2018-10-21T20:02:03.126Z,9.68
2018-10-21T20:04:32.088Z,9.67
2018-10-21T20:07:00.753Z,9.63
2018-10-21T20:09:30.210Z,9.59
2018-10-21T20:11:59.376Z,9.56
2018-10-21T20:14:28.190Z,9.55
2018-10-21T20:16:56.762Z,9.48
2018-10-21T20:19:25.715Z,9.48
2018-10-21T20:21:54.442Z,9.46
2018-10-21T20:24:23.490Z,9.41
2018-10-21T20:26:52.728Z,9.42
2018-10-21T20:29:22.055Z,9.38
2018-10-21T20:31:51.229Z,9.38
2018-10-21T20:34:20.129Z,9.35
2018-10-21T20:36:49.291Z,9.34
2018-10-21T20:39:18.395Z,9.32
2018-10-21T20:41:47.422Z,9.31
2018-10-21T20:44:16.492Z,9.33
2018-10-21T20:46:45.259Z,9.28
2018-10-21T20:49:13.959Z,9.32
2018-10-21T20:51:43.077Z,9.34
2018-10-21T20:54:12.398Z,9.38
2018-10-21T20:56:41.986Z,9.39
2018-10-21T20:59:11.095Z,9.40
2018-10-21T21:01:40.364Z,9.41
2018-10-21T21:04:09.364Z,9.41
2018-10-21T21:06:38.482Z,9.44
2018-10-21T21:09:08.930Z,9.45
2018-10-21T21:11:39.009Z,9.42
2018-10-21T21:14:07.786Z,9.42
2018-10-21T21:16:37.513Z,9.44
2018-10-21T21:19:06.188Z,9.41
2018-10-21T21:21:34.874Z,9.33
2018-10-21T21:24:03.547Z,9.27
2018-10-21T21:26:32.171Z,9.12
2018-10-21T21:29:01.047Z,9.11
2018-10-21T21:31:30.390Z,9.05
2018-10-21T21:33:59.026Z,8.94
2018-10-21T21:36:27.612Z,8.76
2018-10-21T21:38:56.296Z,8.82
2018-10-21T21:41:24.969Z,8.80
2018-10-21T21:43:54.075Z,8.83
2018-10-21T21:46:22.758Z,8.82
2018-10-21T21:48:51.434Z,8.78
2018-10-21T21:51:20.166Z,8.74
2018-10-21T21:53:48.866Z,8.71
2018-10-21T21:56:17.489Z,8.69
2018-10-21T21:58:46.049Z,8.68
2018-10-21T22:01:14.767Z,8.71
2018-10-21T22:03:43.537Z,8.68
2018-10-21T22:06:12.242Z,8.63
2018-10-21T22:08:41.673Z,8.63
2018-10-21T22:11:11.358Z,8.62
2018-10-21T22:13:40.630Z,8.58
2018-10-21T22:16:09.520Z,8.56
2018-10-21T22:18:38.377Z,8.58
2018-10-21T22:21:07.174Z,8.55
2018-10-21T22:23:35.722Z,8.55
2018-10-21T22:26:04.478Z,8.56
2018-10-21T22:28:33.055Z,8.49
2018-10-21T22:31:01.691Z,8.46
2018-10-21T22:33:30.218Z,8.42
2018-10-21T22:35:58.797Z,8.34
2018-10-21T22:41:26.530Z,8.31
2018-10-21T22:43:55.144Z,8.27
2018-10-21T22:46:23.765Z,8.28
2018-10-21T22:48:52.454Z,8.31
2018-10-21T22:51:21.239Z,8.30
2018-10-21T22:53:50.419Z,8.27
2018-10-21T22:56:19.257Z,8.29
2018-10-21T22:58:47.808Z,8.25
2018-10-21T23:01:16.448Z,8.23
2018-10-21T23:03:45.226Z,8.15
2018-10-21T23:06:14.052Z,8.07
2018-10-21T23:08:42.552Z,8.06
2018-10-21T23:11:11.385Z,8.03
2018-10-21T23:13:40.223Z,7.99
2018-10-21T23:16:09.247Z,7.97
2018-10-21T23:18:38.171Z,7.91
2018-10-21T23:21:07.283Z,7.95
2018-10-21T23:23:36.474Z,7.95
2018-10-21T23:26:05.344Z,7.91
2018-10-21T23:28:34.052Z,7.92
2018-10-21T23:31:02.778Z,7.81
2018-10-21T23:33:31.611Z,7.77
2018-10-21T23:36:00.366Z,7.78
2018-10-21T23:38:29.034Z,7.81
2018-10-21T23:40:57.723Z,7.78
2018-10-21T23:43:26.738Z,7.74
2018-10-21T23:45:55.465Z,7.76
2018-10-21T23:48:24.322Z,7.77
2018-10-21T23:50:53.242Z,7.70
2018-10-21T23:53:22.307Z,7.62
2018-10-21T23:55:51.410Z,7.63
2018-10-21T23:58:19.964Z,7.59
